createdAt,value
2018-01-12T00:01:56.914Z,84.30
2018-01-12T00:04:25.687Z,84.10
2018-01-12T00:06:53.554Z,84.00
2018-01-12T00:09:21.453Z,84.10
2018-01-12T00:11:49.306Z,84.30
2018-01-12T00:14:17.437Z,84.40
2018-01-12T00:16:45.264Z,84.20
2018-01-12T00:19:13.119Z,84.10
2018-01-12T00:21:40.989Z,84.20
2018-01-12T00:24:08.927Z,84.40
2018-01-12T00:26:36.785Z,84.20
2018-01-12T00:29:04.855Z,84.00
2018-01-12T00:31:32.737Z,83.90
2018-01-12T00:34:00.752Z,83.90
2018-01-12T00:36:29.394Z,84.30
2018-01-12T00:38:57.324Z,84.30
2018-01-12T00:41:26.058Z,84.10
2018-01-12T00:43:54.135Z,84.10
2018-01-12T00:46:22.320Z,84.30
2018-01-12T00:48:50.383Z,84.10
2018-01-12T00:51:18.345Z,83.80
2018-01-12T00:53:46.449Z,83.90
2018-01-12T00:56:14.463Z,83.80
2018-01-12T00:58:42.460Z,83.70
2018-01-12T01:01:10.580Z,83.60
2018-01-12T01:03:38.388Z,83.70
2018-01-12T01:06:06.255Z,83.90
2018-01-12T01:08:34.211Z,83.30
2018-01-12T01:11:02.161Z,83.50
2018-01-12T01:13:30.998Z,84.50
2018-01-12T01:15:59.023Z,84.50
2018-01-12T01:18:27.014Z,84.80
2018-01-12T01:20:55.806Z,84.70
2018-01-12T01:23:23.844Z,84.70
2018-01-12T01:25:51.780Z,84.80
2018-01-12T01:28:19.779Z,84.50
2018-01-12T01:30:47.824Z,84.30
2018-01-12T01:33:16.589Z,84.60
2018-01-12T01:35:44.783Z,84.70
2018-01-12T01:38:12.668Z,84.80
2018-01-12T01:40:40.781Z,84.90
2018-01-12T01:43:09.428Z,84.30
2018-01-12T01:45:37.382Z,84.30
2018-01-12T01:48:05.353Z,84.40
2018-01-12T01:50:33.317Z,84.40
2018-01-12T01:53:01.233Z,84.60
2018-01-12T01:55:29.192Z,84.60
2018-01-12T01:57:57.210Z,84.20
2018-01-12T02:00:25.111Z,84.40
2018-01-12T02:02:53.038Z,84.40
2018-01-12T02:05:21.734Z,84.50
2018-01-12T02:07:49.640Z,85.20
2018-01-12T02:10:17.640Z,84.20
2018-01-12T02:12:45.719Z,83.90
2018-01-12T02:15:13.646Z,84.10
2018-01-12T02:17:41.647Z,84.00
2018-01-12T02:20:09.705Z,83.90
2018-01-12T02:22:37.640Z,83.70
2018-01-12T02:25:05.604Z,83.70
2018-01-12T02:27:33.494Z,83.70
2018-01-12T02:30:01.411Z,83.80
2018-01-12T02:32:30.040Z,83.80
2018-01-12T02:34:57.985Z,83.80
2018-01-12T02:37:26.652Z,84.20
2018-01-12T02:39:55.361Z,84.50
2018-01-12T02:42:23.449Z,84.50
2018-01-12T02:44:51.470Z,84.60
2018-01-12T02:47:20.013Z,84.30
2018-01-12T02:49:48.839Z,84.00
2018-01-12T02:52:17.021Z,84.10
2018-01-12T02:54:44.978Z,84.10
2018-01-12T02:57:14.387Z,84.20
2018-01-12T02:59:42.898Z,84.10
2018-01-12T03:02:11.690Z,84.10
2018-01-12T03:04:40.452Z,84.00
2018-01-12T03:07:08.499Z,84.00
2018-01-12T03:09:37.501Z,83.80
2018-01-12T03:12:06.594Z,84.00
2018-01-12T03:14:35.690Z,83.80
2018-01-12T03:17:04.116Z,83.80
2018-01-12T03:19:32.127Z,83.60
2018-01-12T03:22:00.289Z,83.70
2018-01-12T03:24:28.299Z,83.80
2018-01-12T03:26:56.322Z,84.10
2018-01-12T03:29:24.864Z,84.70
2018-01-12T03:31:52.792Z,85.00
2018-01-12T03:34:20.878Z,84.70
2018-01-12T03:36:49.727Z,84.90
2018-01-12T03:39:17.840Z,85.00
2018-01-12T03:41:46.073Z,85.10
2018-01-12T03:44:14.120Z,85.00
2018-01-12T03:46:42.156Z,85.00
2018-01-12T03:49:10.144Z,85.10
2018-01-12T03:51:38.096Z,85.10
2018-01-12T03:54:06.187Z,85.40
2018-01-12T03:56:34.185Z,85.60
2018-01-12T03:59:03.012Z,85.50
2018-01-12T04:01:30.985Z,85.60
2018-01-12T04:03:59.025Z,85.60
2018-01-12T04:06:27.399Z,85.50
2018-01-12T04:08:55.621Z,85.30
2018-01-12T04:11:24.339Z,85.30
2018-01-12T04:13:52.337Z,85.40
2018-01-12T04:16:21.005Z,85.20
2018-01-12T04:18:49.117Z,85.10
2018-01-12T04:21:17.961Z,85.10
2018-01-12T04:23:45.938Z,85.10
2018-01-12T04:26:15.764Z,85.10
2018-01-12T04:28:44.592Z,85.10
2018-01-12T04:31:12.803Z,85.10
2018-01-12T04:33:42.985Z,85.20
2018-01-12T04:36:12.208Z,85.20
2018-01-12T04:38:41.233Z,85.10
2018-01-12T04:41:09.183Z,85.00
2018-01-12T04:43:37.986Z,85.50
2018-01-12T04:46:06.690Z,85.60
2018-01-12T04:48:36.075Z,85.80
2018-01-12T04:51:04.238Z,85.90
2018-01-12T04:53:32.223Z,85.80
2018-01-12T04:56:00.198Z,85.80
2018-01-12T04:58:28.302Z,85.60
2018-01-12T05:00:56.513Z,85.60
2018-01-12T05:03:24.508Z,85.70
2018-01-12T05:05:52.517Z,85.30
2018-01-12T05:08:20.583Z,85.30
2018-01-12T05:10:48.562Z,85.30
2018-01-12T05:13:16.681Z,85.50
2018-01-12T05:15:44.675Z,85.50
2018-01-12T05:18:12.574Z,85.60
2018-01-12T05:20:40.533Z,85.50
2018-01-12T05:23:08.539Z,85.80
2018-01-12T05:25:37.396Z,85.80
2018-01-12T05:28:05.386Z,85.80
2018-01-12T05:30:33.448Z,85.60
2018-01-12T05:33:01.334Z,85.40
2018-01-12T05:35:29.986Z,85.60
2018-01-12T05:37:59.364Z,85.60
2018-01-12T05:40:27.288Z,85.80
2018-01-12T05:42:55.413Z,85.80
2018-01-12T05:45:24.084Z,85.60
2018-01-12T05:47:53.206Z,85.30
2018-01-12T05:50:21.553Z,85.20
2018-01-12T05:52:50.807Z,85.10
2018-01-12T05:55:18.822Z,85.20
2018-01-12T05:57:46.773Z,85.00
2018-01-12T06:00:15.500Z,85.00
2018-01-12T06:04:56.580Z,85.00
2018-01-12T06:07:25.376Z,84.90
2018-01-12T06:09:53.721Z,84.90
2018-01-12T06:12:21.711Z,84.90
2018-01-12T06:14:51.045Z,85.00
2018-01-12T06:17:19.087Z,84.80
2018-01-12T06:19:47.068Z,84.60
2018-01-12T06:22:16.209Z,84.50
2018-01-12T06:24:44.721Z,84.80
2018-01-12T06:27:13.526Z,85.20
2018-01-12T06:29:41.484Z,85.20
2018-01-12T06:32:10.236Z,85.20
2018-01-12T06:34:38.344Z,85.10
2018-01-12T06:37:06.363Z,85.20
2018-01-12T06:39:34.428Z,85.20
2018-01-12T06:42:02.564Z,85.10
2018-01-12T06:44:31.226Z,84.90
2018-01-12T06:46:59.225Z,84.90
2018-01-12T06:49:27.185Z,84.50
2018-01-12T06:51:56.171Z,83.90
2018-01-12T06:54:24.168Z,83.90
2018-01-12T06:56:53.613Z,83.70
2018-01-12T06:59:21.826Z,83.60
2018-01-12T07:01:50.792Z,83.70
2018-01-12T07:04:19.744Z,83.60
2018-01-12T07:06:48.102Z,83.60
2018-01-12T07:09:17.940Z,83.80
2018-01-12T07:11:47.283Z,83.80
2018-01-12T07:14:15.392Z,83.90
2018-01-12T07:16:43.305Z,84.00
2018-01-12T07:19:11.369Z,84.30
2018-01-12T07:22:51.771Z,84.20
2018-01-12T07:25:23.326Z,83.90
2018-01-12T07:27:51.361Z,84.10
2018-01-12T07:30:19.553Z,83.80
2018-01-12T07:32:47.516Z,83.80
2018-01-12T07:35:15.615Z,83.80
2018-01-12T07:37:44.009Z,84.20
2018-01-12T07:40:12.009Z,85.00
2018-01-12T07:42:39.961Z,84.50
2018-01-12T07:45:07.868Z,84.90
2018-01-12T07:47:35.906Z,85.10
2018-01-12T07:50:03.901Z,85.20
2018-01-12T07:52:32.046Z,85.20
2018-01-12T07:55:00.463Z,85.10
2018-01-12T07:57:29.406Z,84.80
2018-01-12T07:59:57.502Z,84.60
2018-01-12T08:03:30.587Z,84.70
2018-01-12T08:05:59.955Z,84.70
2018-01-12T08:08:28.726Z,84.60
2018-01-12T08:10:56.900Z,84.60
2018-01-12T08:13:25.040Z,84.80
2018-01-12T08:15:53.129Z,84.60
2018-01-12T08:18:21.193Z,84.60
2018-01-12T08:20:49.343Z,84.90
2018-01-12T08:23:17.551Z,84.90
2018-01-12T08:25:46.681Z,84.70
2018-01-12T08:28:14.967Z,84.70
2018-01-12T08:30:43.267Z,84.90
2018-01-12T08:33:12.772Z,85.00
2018-01-12T08:35:41.053Z,84.90
2018-01-12T08:38:14.115Z,85.10
2018-01-12T08:40:42.645Z,85.50
2018-01-12T08:43:14.601Z,85.20
2018-01-12T08:45:43.457Z,85.30
2018-01-12T08:48:11.652Z,85.30
2018-01-12T08:50:40.246Z,85.70
2018-01-12T08:53:08.598Z,85.60
2018-01-12T08:55:37.206Z,85.40
2018-01-12T08:58:06.054Z,85.20
2018-01-12T09:00:34.033Z,85.00
2018-01-12T09:03:02.127Z,84.90
2018-01-12T09:05:30.191Z,85.20
2018-01-12T09:07:58.299Z,85.30
2018-01-12T09:10:28.093Z,85.60
2018-01-12T09:12:57.627Z,85.60
2018-01-12T09:15:29.858Z,85.70
2018-01-12T09:18:00.537Z,85.60
2018-01-12T09:20:34.090Z,85.80
2018-01-12T09:23:11.190Z,85.70
2018-01-12T09:25:41.418Z,85.60
2018-01-12T09:28:11.933Z,85.60
2018-01-12T09:30:40.201Z,85.60
2018-01-12T09:33:08.620Z,85.90
2018-01-12T09:35:39.792Z,86.20
2018-01-12T09:38:24.786Z,86.40
2018-01-12T09:40:52.873Z,86.50
2018-01-12T09:43:20.923Z,86.50
2018-01-12T09:45:49.229Z,86.50
2018-01-12T09:48:26.368Z,86.50
2018-01-12T09:50:55.964Z,86.80
2018-01-12T09:53:24.062Z,86.70
2018-01-12T09:55:52.045Z,86.70
2018-01-12T09:58:20.012Z,86.50
2018-01-12T10:00:55.859Z,86.50
2018-01-12T10:03:23.908Z,86.50
2018-01-12T10:05:52.065Z,86.50
2018-01-12T10:08:25.734Z,85.90
2018-01-12T10:10:53.817Z,86.00
2018-01-12T10:13:22.652Z,85.90
2018-01-12T10:15:51.625Z,85.60
2018-01-12T10:18:30.245Z,84.70
2018-01-12T10:21:06.662Z,84.70
2018-01-12T10:23:35.890Z,85.20
2018-01-12T10:26:05.298Z,85.00
2018-01-12T10:28:42.780Z,85.20
2018-01-12T10:31:12.699Z,85.30
2018-01-12T10:33:49.948Z,85.50
2018-01-12T10:36:20.054Z,85.20
2018-01-12T10:38:52.650Z,85.20
2018-01-12T10:41:31.306Z,85.40
2018-01-12T10:43:59.948Z,85.40
2018-01-12T10:46:37.638Z,86.20
2018-01-12T10:49:09.460Z,85.60
2018-01-12T10:51:38.001Z,85.70
2018-01-12T10:54:06.115Z,85.50
2018-01-12T10:56:34.132Z,85.50
2018-01-12T10:59:02.317Z,85.50
2018-01-12T11:01:31.072Z,85.50
2018-01-12T11:03:59.760Z,85.50
2018-01-12T11:06:28.088Z,85.70
2018-01-12T11:08:57.355Z,85.30
2018-01-12T11:11:27.064Z,85.80
2018-01-12T11:13:56.734Z,85.30
2018-01-12T11:16:25.524Z,85.20
2018-01-12T11:18:54.637Z,85.00
2018-01-12T11:21:23.733Z,84.40
2018-01-12T11:23:53.501Z,84.40
2018-01-12T11:26:31.478Z,84.90
2018-01-12T11:29:00.332Z,84.70
2018-01-12T11:31:28.743Z,84.60
2018-01-12T11:33:57.003Z,85.00
2018-01-12T11:36:28.700Z,85.20
2018-01-12T11:38:57.518Z,85.40
2018-01-12T11:41:25.726Z,85.40
2018-01-12T11:43:54.402Z,85.30
2018-01-12T11:46:22.706Z,85.30
2018-01-12T11:48:50.733Z,85.30
2018-01-12T11:51:21.483Z,85.20
2018-01-12T11:53:50.031Z,85.30
2018-01-12T11:56:19.644Z,85.00
2018-01-12T11:58:57.439Z,85.10
2018-01-12T12:01:26.931Z,85.20
2018-01-12T12:03:56.586Z,84.90
2018-01-12T12:06:24.937Z,84.90
2018-01-12T12:08:54.314Z,84.70
2018-01-12T12:11:23.275Z,85.30
2018-01-12T12:13:52.000Z,85.40
2018-01-12T12:16:22.769Z,84.60
2018-01-12T12:18:51.417Z,84.60
2018-01-12T12:21:21.238Z,84.40
2018-01-12T12:23:49.942Z,84.80
2018-01-12T12:26:23.978Z,85.00
2018-01-12T12:28:52.118Z,84.90
2018-01-12T12:31:20.543Z,85.30
2018-01-12T12:33:48.836Z,85.50
2018-01-12T12:36:17.235Z,85.70
2018-01-12T12:38:46.798Z,85.70
2018-01-12T12:41:17.033Z,85.30
2018-01-12T12:43:46.257Z,85.30
2018-01-12T12:46:18.208Z,85.70
2018-01-12T12:48:46.253Z,85.70
2018-01-12T12:51:14.332Z,85.80
2018-01-12T12:53:42.385Z,85.60
2018-01-12T12:56:12.040Z,84.70
2018-01-12T12:58:40.153Z,84.70
2018-01-12T13:01:08.533Z,83.90
2018-01-12T13:03:36.801Z,83.60
2018-01-12T13:06:05.272Z,82.90
2018-01-12T13:08:34.312Z,82.70
2018-01-12T13:13:45.729Z,82.10
2018-01-12T13:16:24.289Z,81.90
2018-01-12T13:18:54.891Z,81.90
2018-01-12T13:21:37.819Z,82.00
2018-01-12T13:24:32.142Z,81.80
2018-01-12T13:27:01.640Z,82.00
2018-01-12T13:29:30.211Z,82.00
2018-01-12T13:32:01.121Z,82.30
2018-01-12T13:35:02.498Z,82.00
2018-01-12T13:37:34.486Z,81.90
2018-01-12T13:40:03.084Z,81.80
2018-01-12T13:42:31.370Z,81.50
2018-01-12T13:45:05.494Z,81.90
2018-01-12T13:47:34.450Z,81.90
2018-01-12T13:50:10.814Z,81.90
2018-01-12T13:52:41.430Z,81.80
2018-01-12T13:55:14.827Z,81.80
2018-01-12T13:57:46.439Z,81.60
2018-01-12T14:00:15.263Z,81.50
2018-01-12T14:02:46.808Z,81.40
2018-01-12T14:05:16.889Z,81.70
2018-01-12T14:07:48.661Z,81.70
2018-01-12T14:10:17.354Z,81.60
2018-01-12T14:13:04.169Z,81.80
2018-01-12T14:16:03.885Z,81.80
2018-01-12T14:18:37.750Z,81.30
2018-01-12T14:21:05.994Z,81.30
2018-01-12T14:23:36.878Z,81.50
2018-01-12T14:26:06.019Z,81.40
2018-01-12T14:31:22.416Z,81.60
2018-01-12T14:36:40.322Z,81.80
2018-01-12T14:39:54.972Z,81.80
2018-01-12T14:42:26.335Z,81.40
2018-01-12T14:44:55.542Z,81.50
2018-01-12T14:47:26.015Z,82.00
2018-01-12T14:49:54.266Z,82.00
2018-01-12T14:52:24.787Z,82.10
2018-01-12T14:55:29.282Z,81.70
2018-01-12T15:00:52.704Z,81.80
2018-01-12T15:03:25.330Z,81.70
2018-01-12T15:06:46.642Z,81.70
2018-01-12T15:09:15.961Z,82.00
2018-01-12T15:12:13.169Z,82.00
2018-01-12T15:18:13.132Z,82.30
2018-01-12T15:23:59.696Z,81.70
2018-01-12T15:26:27.832Z,81.50
2018-01-12T15:31:52.774Z,81.50
2018-01-12T15:34:25.074Z,81.70
2018-01-12T15:36:56.342Z,81.70
2018-01-12T15:39:28.901Z,81.80
2018-01-12T15:42:04.668Z,81.80
2018-01-12T15:44:42.614Z,81.80
2018-01-12T15:47:12.519Z,82.00
2018-01-12T15:49:40.937Z,82.10
2018-01-12T15:52:20.771Z,82.30
2018-01-12T15:54:50.248Z,82.40
2018-01-12T15:57:21.040Z,82.60
2018-01-12T15:59:50.885Z,82.60
2018-01-12T16:02:22.431Z,82.50
2018-01-12T16:04:58.101Z,82.50
2018-01-12T16:07:43.242Z,82.60
2018-01-12T16:10:12.769Z,82.50
2018-01-12T16:12:41.676Z,82.50
2018-01-12T16:15:16.351Z,82.60
2018-01-12T16:18:18.154Z,82.70
2018-01-12T16:20:47.927Z,82.80
2018-01-12T16:23:19.224Z,82.90
2018-01-12T16:25:48.242Z,82.90
2018-01-12T16:28:17.137Z,83.00
2018-01-12T16:30:45.470Z,83.00
2018-01-12T16:33:14.946Z,83.00
2018-01-12T16:35:43.746Z,83.10
2018-01-12T16:38:15.582Z,82.90
2018-01-12T16:41:31.644Z,82.90
2018-01-12T16:44:03.963Z,82.90
2018-01-12T16:50:06.880Z,83.00
2018-01-12T16:55:28.353Z,83.10
2018-01-12T16:57:58.561Z,83.20
2018-01-12T17:00:35.768Z,83.80
2018-01-12T17:03:05.008Z,83.20
2018-01-12T17:05:37.144Z,83.00
2018-01-12T17:08:06.651Z,83.00
2018-01-12T17:10:36.662Z,82.90
2018-01-12T17:13:18.575Z,83.00
2018-01-12T17:15:59.363Z,83.00
2018-01-12T17:18:28.536Z,83.20
2018-01-12T17:24:29.265Z,83.20
2018-01-12T17:27:02.575Z,83.20
2018-01-12T17:29:32.690Z,83.00
2018-01-12T17:32:02.566Z,83.20
2018-01-12T17:34:40.200Z,83.40
2018-01-12T17:37:11.237Z,83.20
2018-01-12T17:40:00.922Z,83.30
2018-01-12T17:42:30.679Z,83.30
2018-01-12T17:45:02.371Z,82.80
2018-01-12T17:47:31.574Z,82.80
2018-01-12T17:50:00.911Z,82.80
2018-01-12T17:52:29.244Z,82.80
2018-01-12T17:54:57.471Z,82.80
2018-01-12T17:57:25.691Z,82.60
2018-01-12T17:59:54.815Z,83.10
2018-01-12T18:02:25.102Z,83.00
2018-01-12T18:05:04.464Z,82.90
2018-01-12T18:07:34.998Z,82.90
2018-01-12T18:10:04.906Z,82.90
2018-01-12T18:12:37.412Z,82.90
2018-01-12T18:15:08.214Z,82.80
2018-01-12T18:17:37.483Z,82.80
2018-01-12T18:20:06.016Z,82.90
2018-01-12T18:22:34.021Z,82.90
2018-01-12T18:25:02.393Z,83.00
2018-01-12T18:27:30.537Z,83.00
2018-01-12T18:33:09.740Z,83.20
2018-01-12T18:35:40.703Z,83.10
2018-01-12T18:38:09.803Z,83.20
2018-01-12T18:40:38.017Z,83.30
2018-01-12T18:43:07.344Z,83.20
2018-01-12T18:45:35.749Z,82.80
2018-01-12T18:48:05.606Z,83.20
2018-01-12T18:50:33.948Z,83.20
2018-01-12T18:53:02.255Z,83.00
2018-01-12T18:55:34.834Z,83.30
2018-01-12T18:58:06.708Z,83.30
2018-01-12T19:00:37.374Z,83.20
2018-01-12T19:03:13.555Z,82.60
2018-01-12T19:05:43.479Z,83.00
2018-01-12T19:08:14.837Z,82.80
2018-01-12T19:10:43.231Z,82.80
2018-01-12T19:13:19.594Z,82.40
2018-01-12T19:15:50.584Z,82.40
2018-01-12T19:18:18.668Z,82.80
2018-01-12T19:20:46.814Z,82.70
2018-01-12T19:23:24.322Z,82.90
2018-01-12T19:25:58.196Z,82.80
2018-01-12T19:28:36.307Z,82.70
2018-01-12T19:31:10.750Z,82.60
2018-01-12T19:33:46.286Z,82.70
2018-01-12T19:39:32.719Z,83.40
2018-01-12T19:42:01.609Z,83.20
2018-01-12T19:44:31.153Z,83.40
2018-01-12T19:46:59.232Z,82.60
2018-01-12T19:49:28.089Z,83.20
2018-01-12T19:52:05.391Z,83.20
2018-01-12T19:54:38.562Z,83.20
2018-01-12T19:57:13.573Z,83.30
2018-01-12T19:59:45.655Z,83.30
2018-01-12T20:05:15.679Z,83.50
2018-01-12T20:07:49.868Z,84.00
2018-01-12T20:10:28.651Z,83.90
2018-01-12T20:12:57.243Z,84.30
2018-01-12T20:16:23.752Z,84.00
2018-01-12T20:18:54.523Z,84.20
2018-01-12T20:21:23.835Z,84.30
2018-01-12T20:23:52.981Z,84.30
2018-01-12T20:26:22.882Z,84.20
2018-01-12T20:28:52.853Z,84.20
2018-01-12T20:31:22.129Z,84.20
2018-01-12T20:33:51.495Z,84.20
2018-01-12T20:36:20.323Z,84.10
2018-01-12T20:38:50.210Z,83.90
2018-01-12T20:41:20.491Z,83.90
2018-01-12T20:43:50.346Z,83.90
2018-01-12T20:46:19.970Z,83.80
2018-01-12T20:48:50.336Z,83.80
2018-01-12T20:51:29.812Z,83.60
2018-01-12T20:53:59.624Z,83.60
2018-01-12T20:56:31.595Z,83.20
2018-01-12T20:59:02.275Z,83.30
2018-01-12T21:01:32.460Z,83.20
2018-01-12T21:04:04.286Z,83.30
2018-01-12T21:06:39.452Z,83.20
2018-01-12T21:09:09.007Z,83.20
2018-01-12T21:11:42.025Z,83.30
2018-01-12T21:14:10.884Z,83.40
2018-01-12T21:16:43.034Z,83.50
2018-01-12T21:19:12.931Z,83.40
2018-01-12T21:21:43.892Z,83.40
2018-01-12T21:24:17.227Z,83.40
2018-01-12T21:26:49.470Z,83.20
2018-01-12T21:29:25.735Z,83.10
2018-01-12T21:31:56.975Z,83.10
2018-01-12T21:34:31.322Z,83.60
2018-01-12T21:37:03.612Z,83.60
2018-01-12T21:39:34.940Z,83.60
2018-01-12T21:42:16.123Z,83.40
2018-01-12T21:44:49.386Z,83.20
2018-01-12T21:47:18.395Z,83.20
2018-01-12T21:49:52.723Z,83.30
2018-01-12T21:52:23.141Z,83.70
2018-01-12T21:54:56.968Z,83.80
2018-01-12T21:57:33.236Z,83.50
2018-01-12T22:00:01.766Z,83.30
2018-01-12T22:02:29.998Z,83.20
2018-01-12T22:05:26.007Z,83.30
2018-01-12T22:18:00.078Z,85.40
2018-01-12T22:20:29.320Z,85.70
2018-01-12T22:22:57.289Z,85.70
2018-01-12T22:25:25.688Z,85.90
2018-01-12T22:27:54.397Z,85.60
2018-01-12T22:30:26.549Z,85.70
2018-01-12T22:32:54.604Z,85.70
2018-01-12T22:35:25.360Z,85.90
2018-01-12T22:37:53.816Z,85.80
2018-01-12T22:40:24.788Z,85.90
2018-01-12T22:42:53.139Z,85.80
2018-01-12T22:45:21.113Z,85.80
2018-01-12T22:47:49.746Z,85.70
2018-01-12T22:50:18.102Z,85.60
2018-01-12T22:52:46.325Z,85.80
2018-01-12T22:55:14.476Z,85.70
2018-01-12T22:57:42.445Z,85.70
2018-01-12T23:00:14.635Z,85.80
2018-01-12T23:02:42.865Z,85.80
2018-01-12T23:05:10.926Z,85.60
2018-01-12T23:08:06.005Z,85.70
2018-01-12T23:10:36.032Z,85.70
2018-01-12T23:13:03.999Z,85.70
2018-01-12T23:15:32.171Z,85.50
2018-01-12T23:18:00.229Z,85.50
2018-01-12T23:20:29.055Z,85.30
2018-01-12T23:22:57.046Z,85.40
2018-01-12T23:25:24.986Z,85.30
2018-01-12T23:27:53.170Z,85.40
2018-01-12T23:30:21.308Z,85.30
2018-01-12T23:32:49.457Z,85.30
2018-01-12T23:35:17.972Z,85.20
2018-01-12T23:37:46.653Z,85.00
2018-01-12T23:40:54.242Z,84.40
2018-01-12T23:43:23.255Z,84.70
2018-01-12T23:45:51.331Z,84.60
2018-01-12T23:48:19.361Z,85.20
2018-01-12T23:50:47.771Z,85.30
2018-01-12T23:53:15.976Z,85.40
2018-01-12T23:55:48.006Z,85.00
2018-01-12T23:58:16.236Z,85.10
